EDT,Max TemperatureF,Mean TemperatureF,Min TemperatureF,Max Dew PointF,MeanDew PointF,Min DewpointF,Max Humidity, Mean Humidity, Min Humidity, Max Sea Level PressureIn, Mean Sea Level PressureIn, Min Sea Level PressureIn, Max VisibilityMiles, Mean VisibilityMiles, Min VisibilityMiles, Max Wind SpeedMPH, Mean Wind SpeedMPH, Max Gust SpeedMPH,PrecipitationIn, CloudCover, Events, WindDirDegrees
2014-8-1,80,68,57,66,60,54,88,77,51,30.24,30.20,30.16,10,8,1,10,3,,0.00,1,,210
2014-8-2,75,65,55,64,58,50,94,76,57,30.24,30.20,30.15,10,7,1,7,3,,0.00,1,,194
2014-8-3,75,63,51,59,54,46,88,73,56,30.15,30.11,30.07,10,8,2,8,2,,0.00,1,,158
2014-8-4,78,66,55,64,59,52,94,78,61,30.07,30.03,30.01,10,7,0,7,1,,0.00,3,,145
2014-8-5,82,68,55,66,60,50,88,74,48,30.03,29.98,29.89,10,8,2,10,2,,0.10,1,Thunderstorm,193
2014-8-6,82,70,57,63,59,52,94,72,37,29.89,29.83,29.77,10,9,4,24,3,31,0.08,3,Thunderstorm,300
2014-8-7,73,62,51,57,53,46,88,74,47,29.93,29.88,29.84,10,10,4,14,3,22,0.14,2,Thunderstorm,300
2014-8-8,80,66,51,63,54,46,88,66,39,30.03,29.97,29.92,10,10,8,10,5,,0.00,1,Thunderstorm,303
2014-8-9,82,68,53,61,55,48,94,66,37,30.09,30.05,30.01,10,10,8,10,3,,0.00,1,,306
2014-8-10,80,66,53,61,55,48,88,67,39,30.15,30.12,30.09,10,10,7,10,2,,0.00,0,,84
2014-8-11,84,68,53,63,57,48,88,70,42,30.16,30.13,30.10,10,10,7,8,2,,0.00,0,,130
2014-8-12,77,66,55,63,59,52,88,80,61,30.15,30.12,30.07,10,7,0,7,2,,0.00,3,,103
2014-8-13,66,64,62,63,60,57,94,84,77,30.08,29.90,29.65,10,8,2,18,6,31,2.34,7,Thunderstorm,106
2014-8-14,,,,,,,,,,,,,,,,,,,,,,
2014-8-15,71,66,60,52,49,46,72,57,43,29.90,29.87,29.85,10,10,10,14,8,,0.00,5,,247
2014-8-16,75,64,53,57,51,48,82,64,38,29.95,29.92,29.89,10,10,7,13,6,18,0.00,2,,235
2014-8-17,75,64,53,57,53,48,88,68,50,29.90,29.82,29.77,10,10,8,15,5,21,0.00,4,,258
2014-8-18,73,62,51,54,49,46,88,61,38,29.88,29.81,29.77,10,10,10,12,5,21,0.00,4,,290
2014-8-19,77,60,44,55,48,39,88,67,41,29.97,29.92,29.87,10,10,7,7,2,,0.00,0,,173
2014-8-20,77,62,46,55,50,43,88,68,44,30.08,30.03,29.97,10,10,6,9,1,,0.00,0,,134
2014-8-21,69,58,46,59,51,43,87,73,53,30.13,30.10,30.07,10,10,7,7,1,,0.00,2,,188
2014-8-22,68,62,57,57,55,52,88,75,64,30.15,30.13,30.10,10,9,0,15,6,,0.00,7,,44
2014-8-23,71,60,50,55,51,46,88,72,53,30.16,30.14,30.12,10,10,9,12,3,,0.00,4,,71
2014-8-24,80,64,48,63,53,43,88,67,39,30.16,30.13,30.10,10,10,10,12,2,16,0.00,1,,325
2014-8-25,87,71,55,64,57,52,88,65,37,30.17,30.13,30.10,10,10,4,7,2,,0.00,0,,342
2014-8-26,87,70,53,64,58,48,88,68,40,30.16,30.10,30.01,10,9,5,10,2,,0.00,0,,207
2014-8-27,89,76,64,66,63,59,88,68,43,30.01,29.90,29.83,10,10,7,16,8,18,0.00,0,,241
2014-8-28,77,68,57,61,52,45,88,57,34,29.98,29.85,29.79,10,9,1,15,6,26,0.00,2,,316
2014-8-29,71,58,46,54,48,43,87,67,43,30.28,30.16,29.99,10,10,7,12,4,17,0.00,0,,76
2014-8-30,73,60,46,55,51,41,88,73,53,30.30,30.23,30.11,10,10,10,13,4,20,0.00,1,,198
2014-8-31,86,73,60,70,63,55,88,74,55,30.11,30.01,29.94,10,9,2,14,6,20,0.62,2,,225